sensor_id;sensor_type;location;lat;lon;timestamp;temperature;humidity
15969;DHT22;8085;53.472;9.794;2023-07-02T00:00:10;14.90;81.10
15969;DHT22;8085;53.472;9.794;2023-07-02T00:02:38;14.90;81.30
15969;DHT22;8085;53.472;9.794;2023-07-02T00:05:06;14.90;81.20
15969;DHT22;8085;53.472;9.794;2023-07-02T00:07:34;14.90;81.50
15969;DHT22;8085;53.472;9.794;2023-07-02T00:10:01;14.90;81.50
15969;DHT22;8085;53.472;9.794;2023-07-02T00:12:29;14.80;81.50
15969;DHT22;8085;53.472;9.794;2023-07-02T00:14:55;14.80;81.60
15969;DHT22;8085;53.472;9.794;2023-07-02T00:17:23;14.80;81.70
15969;DHT22;8085;53.472;9.794;2023-07-02T00:19:51;14.80;82.00
15969;DHT22;8085;53.472;9.794;2023-07-02T00:22:18;14.70;82.00
15969;DHT22;8085;53.472;9.794;2023-07-02T00:24:45;14.70;82.20
15969;DHT22;8085;53.472;9.794;2023-07-02T00:27:12;14.80;82.30
15969;DHT22;8085;53.472;9.794;2023-07-02T00:29:39;14.80;82.30
15969;DHT22;8085;53.472;9.794;2023-07-02T00:32:07;14.80;82.20
15969;DHT22;8085;53.472;9.794;2023-07-02T00:34:34;14.80;82.00
15969;DHT22;8085;53.472;9.794;2023-07-02T00:37:02;14.80;82.10
15969;DHT22;8085;53.472;9.794;2023-07-02T00:39:29;14.90;82.00
15969;DHT22;8085;53.472;9.794;2023-07-02T00:42:00;14.90;82.10
15969;DHT22;8085;53.472;9.794;2023-07-02T00:44:28;15.00;82.20
15969;DHT22;8085;53.472;9.794;2023-07-02T00:46:55;14.90;81.70
15969;DHT22;8085;53.472;9.794;2023-07-02T00:49:22;15.00;81.80
15969;DHT22;8085;53.472;9.794;2023-07-02T00:51:53;15.00;82.50
15969;DHT22;8085;53.472;9.794;2023-07-02T00:54:22;15.00;82.30
15969;DHT22;8085;53.472;9.794;2023-07-02T00:56:49;15.00;81.40
15969;DHT22;8085;53.472;9.794;2023-07-02T00:59:19;15.10;81.40
15969;DHT22;8085;53.472;9.794;2023-07-02T01:01:46;15.10;81.30
15969;DHT22;8085;53.472;9.794;2023-07-02T01:04:17;15.10;81.10
15969;DHT22;8085;53.472;9.794;2023-07-02T01:06:44;15.10;81.30
15969;DHT22;8085;53.472;9.794;2023-07-02T01:09:11;15.10;81.30
15969;DHT22;8085;53.472;9.794;2023-07-02T01:11:41;15.00;81.10
15969;DHT22;8085;53.472;9.794;2023-07-02T01:14:14;15.10;81.30
15969;DHT22;8085;53.472;9.794;2023-07-02T01:16:42;15.10;81.20
15969;DHT22;8085;53.472;9.794;2023-07-02T01:19:13;15.10;81.20
15969;DHT22;8085;53.472;9.794;2023-07-02T01:21:41;15.00;81.10
15969;DHT22;8085;53.472;9.794;2023-07-02T01:24:08;15.10;81.40
15969;DHT22;8085;53.472;9.794;2023-07-02T01:26:35;15.10;81.20
15969;DHT22;8085;53.472;9.794;2023-07-02T01:29:15;15.20;81.40
15969;DHT22;8085;53.472;9.794;2023-07-02T01:31:42;15.10;81.30
15969;DHT22;8085;53.472;9.794;2023-07-02T01:34:10;15.10;81.20
15969;DHT22;8085;53.472;9.794;2023-07-02T01:36:37;15.10;81.10
15969;DHT22;8085;53.472;9.794;2023-07-02T01:39:05;15.10;81.10
15969;DHT22;8085;53.472;9.794;2023-07-02T01:41:37;15.20;81.20
15969;DHT22;8085;53.472;9.794;2023-07-02T01:44:04;15.10;81.00
15969;DHT22;8085;53.472;9.794;2023-07-02T01:46:31;15.00;80.90
15969;DHT22;8085;53.472;9.794;2023-07-02T01:48:58;15.10;81.00
15969;DHT22;8085;53.472;9.794;2023-07-02T01:51:25;15.10;80.90
15969;DHT22;8085;53.472;9.794;2023-07-02T01:53:52;15.10;80.80
15969;DHT22;8085;53.472;9.794;2023-07-02T01:56:20;15.00;80.80
15969;DHT22;8085;53.472;9.794;2023-07-02T01:58:47;15.10;80.80
15969;DHT22;8085;53.472;9.794;2023-07-02T02:01:13;15.10;80.90
15969;DHT22;8085;53.472;9.794;2023-07-02T02:03:40;15.00;80.80
15969;DHT22;8085;53.472;9.794;2023-07-02T02:06:07;15.00;80.90
15969;DHT22;8085;53.472;9.794;2023-07-02T02:08:34;15.00;81.00
15969;DHT22;8085;53.472;9.794;2023-07-02T02:11:01;15.00;81.00
15969;DHT22;8085;53.472;9.794;2023-07-02T02:13:29;15.00;80.90
15969;DHT22;8085;53.472;9.794;2023-07-02T02:15:57;15.00;81.00
15969;DHT22;8085;53.472;9.794;2023-07-02T02:18:24;15.00;81.10
15969;DHT22;8085;53.472;9.794;2023-07-02T02:20:50;14.90;81.10
15969;DHT22;8085;53.472;9.794;2023-07-02T02:23:17;14.90;81.10
15969;DHT22;8085;53.472;9.794;2023-07-02T02:25:45;14.90;81.80
15969;DHT22;8085;53.472;9.794;2023-07-02T02:28:12;15.00;81.10
15969;DHT22;8085;53.472;9.794;2023-07-02T02:30:40;14.90;81.10
15969;DHT22;8085;53.472;9.794;2023-07-02T02:33:07;15.00;81.10
15969;DHT22;8085;53.472;9.794;2023-07-02T02:35:34;15.00;81.10
15969;DHT22;8085;53.472;9.794;2023-07-02T02:38:03;15.00;81.00
15969;DHT22;8085;53.472;9.794;2023-07-02T02:40:30;15.00;81.10
15969;DHT22;8085;53.472;9.794;2023-07-02T02:42:57;15.00;81.00
15969;DHT22;8085;53.472;9.794;2023-07-02T02:45:24;15.00;80.70
15969;DHT22;8085;53.472;9.794;2023-07-02T02:47:52;15.00;80.60
15969;DHT22;8085;53.472;9.794;2023-07-02T02:50:21;15.00;80.60
15969;DHT22;8085;53.472;9.794;2023-07-02T02:52:48;15.00;80.50
15969;DHT22;8085;53.472;9.794;2023-07-02T02:55:14;15.00;80.50
15969;DHT22;8085;53.472;9.794;2023-07-02T02:57:41;14.90;80.40
15969;DHT22;8085;53.472;9.794;2023-07-02T03:00:10;15.00;80.60
15969;DHT22;8085;53.472;9.794;2023-07-02T03:02:38;14.90;80.50
15969;DHT22;8085;53.472;9.794;2023-07-02T03:05:07;14.90;80.30
15969;DHT22;8085;53.472;9.794;2023-07-02T03:07:34;14.90;80.10
15969;DHT22;8085;53.472;9.794;2023-07-02T03:10:01;14.90;80.10
15969;DHT22;8085;53.472;9.794;2023-07-02T03:12:28;14.90;80.00
15969;DHT22;8085;53.472;9.794;2023-07-02T03:14:55;14.90;80.00
15969;DHT22;8085;53.472;9.794;2023-07-02T03:17:22;14.90;79.80
15969;DHT22;8085;53.472;9.794;2023-07-02T03:19:49;14.80;79.70
15969;DHT22;8085;53.472;9.794;2023-07-02T03:22:17;14.90;79.60
15969;DHT22;8085;53.472;9.794;2023-07-02T03:24:44;14.90;79.50
15969;DHT22;8085;53.472;9.794;2023-07-02T03:27:11;14.90;79.50
15969;DHT22;8085;53.472;9.794;2023-07-02T03:29:38;14.80;79.40
15969;DHT22;8085;53.472;9.794;2023-07-02T03:32:05;14.80;79.40
15969;DHT22;8085;53.472;9.794;2023-07-02T03:34:32;14.80;79.30
15969;DHT22;8085;53.472;9.794;2023-07-02T03:36:59;14.70;79.00
15969;DHT22;8085;53.472;9.794;2023-07-02T03:39:27;14.80;79.00
15969;DHT22;8085;53.472;9.794;2023-07-02T03:41:54;14.90;79.00
15969;DHT22;8085;53.472;9.794;2023-07-02T03:44:21;14.80;78.80
15969;DHT22;8085;53.472;9.794;2023-07-02T03:46:48;14.90;78.80
15969;DHT22;8085;53.472;9.794;2023-07-02T03:49:15;14.80;78.40
15969;DHT22;8085;53.472;9.794;2023-07-02T03:51:41;14.80;78.30
15969;DHT22;8085;53.472;9.794;2023-07-02T03:54:08;14.80;78.30
15969;DHT22;8085;53.472;9.794;2023-07-02T03:56:37;14.80;78.40
15969;DHT22;8085;53.472;9.794;2023-07-02T03:59:03;14.80;78.20
15969;DHT22;8085;53.472;9.794;2023-07-02T04:01:30;14.80;78.20
15969;DHT22;8085;53.472;9.794;2023-07-02T04:03:57;14.80;78.00
15969;DHT22;8085;53.472;9.794;2023-07-02T04:06:24;14.80;78.60
15969;DHT22;8085;53.472;9.794;2023-07-02T04:08:51;14.80;77.90
15969;DHT22;8085;53.472;9.794;2023-07-02T04:11:18;14.90;78.00
15969;DHT22;8085;53.472;9.794;2023-07-02T04:13:46;14.80;77.80
15969;DHT22;8085;53.472;9.794;2023-07-02T04:16:13;14.90;77.80
15969;DHT22;8085;53.472;9.794;2023-07-02T04:18:40;14.90;77.60
15969;DHT22;8085;53.472;9.794;2023-07-02T04:21:06;14.90;77.50
15969;DHT22;8085;53.472;9.794;2023-07-02T04:23:33;14.80;77.20
15969;DHT22;8085;53.472;9.794;2023-07-02T04:26:00;14.90;77.20
15969;DHT22;8085;53.472;9.794;2023-07-02T04:28:27;14.90;76.90
15969;DHT22;8085;53.472;9.794;2023-07-02T04:30:55;15.00;76.90
15969;DHT22;8085;53.472;9.794;2023-07-02T04:33:22;15.00;76.80
15969;DHT22;8085;53.472;9.794;2023-07-02T04:35:49;15.00;76.60
15969;DHT22;8085;53.472;9.794;2023-07-02T04:38:16;15.00;76.30
15969;DHT22;8085;53.472;9.794;2023-07-02T04:40:43;15.00;76.10
15969;DHT22;8085;53.472;9.794;2023-07-02T04:43:12;15.10;76.10
15969;DHT22;8085;53.472;9.794;2023-07-02T04:45:39;15.10;75.80
15969;DHT22;8085;53.472;9.794;2023-07-02T04:48:11;15.20;75.70
15969;DHT22;8085;53.472;9.794;2023-07-02T04:50:39;15.20;75.10
15969;DHT22;8085;53.472;9.794;2023-07-02T04:53:05;15.20;75.20
15969;DHT22;8085;53.472;9.794;2023-07-02T04:55:32;15.10;75.20
15969;DHT22;8085;53.472;9.794;2023-07-02T04:57:59;15.20;74.90
15969;DHT22;8085;53.472;9.794;2023-07-02T05:00:26;15.20;74.60
15969;DHT22;8085;53.472;9.794;2023-07-02T05:02:53;15.30;74.80
15969;DHT22;8085;53.472;9.794;2023-07-02T05:05:21;15.20;74.60
15969;DHT22;8085;53.472;9.794;2023-07-02T05:07:48;15.40;74.70
15969;DHT22;8085;53.472;9.794;2023-07-02T05:10:15;15.30;74.50
15969;DHT22;8085;53.472;9.794;2023-07-02T05:12:42;15.30;73.90
15969;DHT22;8085;53.472;9.794;2023-07-02T05:15:09;15.40;74.10
15969;DHT22;8085;53.472;9.794;2023-07-02T05:17:37;15.30;73.40
15969;DHT22;8085;53.472;9.794;2023-07-02T05:20:05;15.30;73.40
15969;DHT22;8085;53.472;9.794;2023-07-02T05:22:34;15.40;74.00
15969;DHT22;8085;53.472;9.794;2023-07-02T05:25:00;15.50;73.40
15969;DHT22;8085;53.472;9.794;2023-07-02T05:27:28;15.40;73.20
15969;DHT22;8085;53.472;9.794;2023-07-02T05:29:55;15.50;73.10
15969;DHT22;8085;53.472;9.794;2023-07-02T05:32:21;15.50;73.00
15969;DHT22;8085;53.472;9.794;2023-07-02T05:34:48;15.70;73.10
15969;DHT22;8085;53.472;9.794;2023-07-02T05:37:15;15.60;72.70
15969;DHT22;8085;53.472;9.794;2023-07-02T05:39:43;15.60;72.30
15969;DHT22;8085;53.472;9.794;2023-07-02T05:42:10;15.70;72.00
15969;DHT22;8085;53.472;9.794;2023-07-02T05:44:37;15.70;72.10
15969;DHT22;8085;53.472;9.794;2023-07-02T05:47:04;15.80;72.30
15969;DHT22;8085;53.472;9.794;2023-07-02T05:49:31;15.90;71.00
15969;DHT22;8085;53.472;9.794;2023-07-02T05:51:57;15.90;71.20
15969;DHT22;8085;53.472;9.794;2023-07-02T05:54:24;16.00;71.40
15969;DHT22;8085;53.472;9.794;2023-07-02T05:56:52;16.00;71.30
15969;DHT22;8085;53.472;9.794;2023-07-02T05:59:19;16.00;71.10
15969;DHT22;8085;53.472;9.794;2023-07-02T06:01:46;16.00;71.20
15969;DHT22;8085;53.472;9.794;2023-07-02T06:04:13;16.10;70.40
15969;DHT22;8085;53.472;9.794;2023-07-02T06:06:40;16.10;70.50
15969;DHT22;8085;53.472;9.794;2023-07-02T06:09:07;16.10;71.50
15969;DHT22;8085;53.472;9.794;2023-07-02T06:11:34;16.20;70.60
15969;DHT22;8085;53.472;9.794;2023-07-02T06:14:02;16.20;70.60
15969;DHT22;8085;53.472;9.794;2023-07-02T06:16:29;16.30;70.60
15969;DHT22;8085;53.472;9.794;2023-07-02T06:18:56;16.40;70.70
15969;DHT22;8085;53.472;9.794;2023-07-02T06:21:23;16.30;70.10
15969;DHT22;8085;53.472;9.794;2023-07-02T06:23:55;16.40;69.80
15969;DHT22;8085;53.472;9.794;2023-07-02T06:26:23;16.40;69.60
15969;DHT22;8085;53.472;9.794;2023-07-02T06:28:50;16.50;69.40
15969;DHT22;8085;53.472;9.794;2023-07-02T06:31:18;16.60;70.00
15969;DHT22;8085;53.472;9.794;2023-07-02T06:33:45;16.70;68.50
15969;DHT22;8085;53.472;9.794;2023-07-02T06:36:12;16.70;68.20
15969;DHT22;8085;53.472;9.794;2023-07-02T06:38:40;16.70;67.50
15969;DHT22;8085;53.472;9.794;2023-07-02T06:41:07;16.80;67.80
15969;DHT22;8085;53.472;9.794;2023-07-02T06:43:34;16.80;67.40
15969;DHT22;8085;53.472;9.794;2023-07-02T06:46:01;17.00;66.90
15969;DHT22;8085;53.472;9.794;2023-07-02T06:48:29;17.20;66.50
15969;DHT22;8085;53.472;9.794;2023-07-02T06:50:56;17.40;64.90
15969;DHT22;8085;53.472;9.794;2023-07-02T06:53:23;17.70;64.40
15969;DHT22;8085;53.472;9.794;2023-07-02T06:55:50;18.10;63.50
15969;DHT22;8085;53.472;9.794;2023-07-02T06:58:16;18.50;63.10
15969;DHT22;8085;53.472;9.794;2023-07-02T07:00:43;18.90;61.00
15969;DHT22;8085;53.472;9.794;2023-07-02T07:03:10;19.00;60.00
15969;DHT22;8085;53.472;9.794;2023-07-02T07:05:38;19.20;59.50
15969;DHT22;8085;53.472;9.794;2023-07-02T07:08:07;19.60;59.20
15969;DHT22;8085;53.472;9.794;2023-07-02T07:10:54;20.10;57.60
15969;DHT22;8085;53.472;9.794;2023-07-02T07:13:29;20.50;56.10
15969;DHT22;8085;53.472;9.794;2023-07-02T07:15:56;20.20;55.80
15969;DHT22;8085;53.472;9.794;2023-07-02T07:18:24;19.80;55.80
15969;DHT22;8085;53.472;9.794;2023-07-02T07:21:00;19.30;56.70
15969;DHT22;8085;53.472;9.794;2023-07-02T07:23:27;18.90;57.90
15969;DHT22;8085;53.472;9.794;2023-07-02T07:25:54;18.60;58.00
15969;DHT22;8085;53.472;9.794;2023-07-02T07:28:21;18.30;58.20
15969;DHT22;8085;53.472;9.794;2023-07-02T07:30:48;18.20;57.30
15969;DHT22;8085;53.472;9.794;2023-07-02T07:33:15;18.00;58.20
15969;DHT22;8085;53.472;9.794;2023-07-02T07:35:42;17.80;58.10
15969;DHT22;8085;53.472;9.794;2023-07-02T07:38:13;17.80;58.00
15969;DHT22;8085;53.472;9.794;2023-07-02T07:40:40;17.80;58.90
15969;DHT22;8085;53.472;9.794;2023-07-02T07:43:07;18.00;58.40
15969;DHT22;8085;53.472;9.794;2023-07-02T07:45:34;18.30;57.60
15969;DHT22;8085;53.472;9.794;2023-07-02T07:48:01;18.70;55.50
15969;DHT22;8085;53.472;9.794;2023-07-02T07:50:29;19.00;55.20
15969;DHT22;8085;53.472;9.794;2023-07-02T07:52:56;19.30;53.90
15969;DHT22;8085;53.472;9.794;2023-07-02T07:55:25;19.40;54.50
15969;DHT22;8085;53.472;9.794;2023-07-02T07:57:54;19.50;53.00
15969;DHT22;8085;53.472;9.794;2023-07-02T08:00:26;19.30;53.80
15969;DHT22;8085;53.472;9.794;2023-07-02T08:02:57;19.40;52.60
15969;DHT22;8085;53.472;9.794;2023-07-02T08:05:32;19.50;53.70
15969;DHT22;8085;53.472;9.794;2023-07-02T08:07:59;19.70;52.50
15969;DHT22;8085;53.472;9.794;2023-07-02T08:10:27;19.80;52.20
15969;DHT22;8085;53.472;9.794;2023-07-02T08:13:03;20.00;51.10
15969;DHT22;8085;53.472;9.794;2023-07-02T08:15:33;19.90;49.00
15969;DHT22;8085;53.472;9.794;2023-07-02T08:18:03;20.00;51.10
15969;DHT22;8085;53.472;9.794;2023-07-02T08:20:32;19.90;50.20
15969;DHT22;8085;53.472;9.794;2023-07-02T08:22:59;19.80;49.80
15969;DHT22;8085;53.472;9.794;2023-07-02T08:25:28;19.80;49.10
15969;DHT22;8085;53.472;9.794;2023-07-02T08:27:56;19.70;47.70
15969;DHT22;8085;53.472;9.794;2023-07-02T08:30:25;19.60;48.10
15969;DHT22;8085;53.472;9.794;2023-07-02T08:33:02;19.70;46.10
15969;DHT22;8085;53.472;9.794;2023-07-02T08:35:33;19.50;45.60
15969;DHT22;8085;53.472;9.794;2023-07-02T08:38:04;19.50;46.90
15969;DHT22;8085;53.472;9.794;2023-07-02T08:40:35;19.40;46.80
15969;DHT22;8085;53.472;9.794;2023-07-02T08:43:03;19.40;46.10
15969;DHT22;8085;53.472;9.794;2023-07-02T08:45:30;19.40;46.80
15969;DHT22;8085;53.472;9.794;2023-07-02T08:47:57;19.30;47.10
15969;DHT22;8085;53.472;9.794;2023-07-02T08:50:29;19.20;47.40
15969;DHT22;8085;53.472;9.794;2023-07-02T08:53:00;19.20;46.40
15969;DHT22;8085;53.472;9.794;2023-07-02T08:55:46;19.10;48.80
15969;DHT22;8085;53.472;9.794;2023-07-02T08:58:16;19.20;48.70
15969;DHT22;8085;53.472;9.794;2023-07-02T09:01:08;19.30;48.70
15969;DHT22;8085;53.472;9.794;2023-07-02T09:03:39;19.40;49.10
15969;DHT22;8085;53.472;9.794;2023-07-02T09:06:12;19.50;48.00
15969;DHT22;8085;53.472;9.794;2023-07-02T09:08:39;19.70;47.80
15969;DHT22;8085;53.472;9.794;2023-07-02T09:11:10;19.70;47.60
15969;DHT22;8085;53.472;9.794;2023-07-02T09:13:50;19.60;47.80
15969;DHT22;8085;53.472;9.794;2023-07-02T09:16:26;19.40;48.70
15969;DHT22;8085;53.472;9.794;2023-07-02T09:19:01;19.20;50.00
15969;DHT22;8085;53.472;9.794;2023-07-02T09:21:38;19.20;50.00
15969;DHT22;8085;53.472;9.794;2023-07-02T09:24:23;19.00;49.30
15969;DHT22;8085;53.472;9.794;2023-07-02T09:26:54;18.80;50.60
15969;DHT22;8085;53.472;9.794;2023-07-02T09:29:22;18.80;51.20
15969;DHT22;8085;53.472;9.794;2023-07-02T09:31:50;18.80;50.70
15969;DHT22;8085;53.472;9.794;2023-07-02T09:34:17;18.70;50.90
15969;DHT22;8085;53.472;9.794;2023-07-02T09:36:47;18.70;51.00
15969;DHT22;8085;53.472;9.794;2023-07-02T09:39:19;18.70;51.20
15969;DHT22;8085;53.472;9.794;2023-07-02T09:42:05;18.80;50.20
15969;DHT22;8085;53.472;9.794;2023-07-02T09:44:35;19.00;51.60
15969;DHT22;8085;53.472;9.794;2023-07-02T09:47:07;19.10;50.00
15969;DHT22;8085;53.472;9.794;2023-07-02T09:49:35;19.20;50.30
15969;DHT22;8085;53.472;9.794;2023-07-02T09:52:06;19.30;50.10
15969;DHT22;8085;53.472;9.794;2023-07-02T09:54:47;19.40;50.40
15969;DHT22;8085;53.472;9.794;2023-07-02T09:57:19;19.40;51.00
15969;DHT22;8085;53.472;9.794;2023-07-02T09:59:49;19.50;50.20
15969;DHT22;8085;53.472;9.794;2023-07-02T10:02:17;19.60;49.60
15969;DHT22;8085;53.472;9.794;2023-07-02T10:05:09;19.60;49.70
15969;DHT22;8085;53.472;9.794;2023-07-02T10:07:42;19.60;50.50
15969;DHT22;8085;53.472;9.794;2023-07-02T10:10:25;19.80;49.80
15969;DHT22;8085;53.472;9.794;2023-07-02T10:12:56;19.90;49.50
15969;DHT22;8085;53.472;9.794;2023-07-02T10:15:25;19.90;48.10
15969;DHT22;8085;53.472;9.794;2023-07-02T10:17:57;19.90;47.70
15969;DHT22;8085;53.472;9.794;2023-07-02T10:20:36;20.10;48.30
15969;DHT22;8085;53.472;9.794;2023-07-02T10:23:08;20.20;46.50
15969;DHT22;8085;53.472;9.794;2023-07-02T10:25:37;20.40;46.20
15969;DHT22;8085;53.472;9.794;2023-07-02T10:28:23;20.50;46.00
15969;DHT22;8085;53.472;9.794;2023-07-02T10:30:53;20.60;46.00
15969;DHT22;8085;53.472;9.794;2023-07-02T10:33:22;20.60;44.70
15969;DHT22;8085;53.472;9.794;2023-07-02T10:36:00;20.30;44.10
15969;DHT22;8085;53.472;9.794;2023-07-02T10:38:30;20.10;44.70
15969;DHT22;8085;53.472;9.794;2023-07-02T10:41:03;19.90;44.60
15969;DHT22;8085;53.472;9.794;2023-07-02T10:43:32;19.70;45.40
15969;DHT22;8085;53.472;9.794;2023-07-02T10:46:03;19.50;46.90
15969;DHT22;8085;53.472;9.794;2023-07-02T10:48:51;19.30;47.30
15969;DHT22;8085;53.472;9.794;2023-07-02T10:51:18;19.30;46.90
15969;DHT22;8085;53.472;9.794;2023-07-02T10:53:59;19.30;46.80
15969;DHT22;8085;53.472;9.794;2023-07-02T10:56:41;19.40;46.60
15969;DHT22;8085;53.472;9.794;2023-07-02T10:59:27;19.60;46.80
15969;DHT22;8085;53.472;9.794;2023-07-02T11:01:54;19.80;46.70
15969;DHT22;8085;53.472;9.794;2023-07-02T11:04:39;19.90;46.30
15969;DHT22;8085;53.472;9.794;2023-07-02T11:07:10;20.00;46.70
15969;DHT22;8085;53.472;9.794;2023-07-02T11:09:57;20.10;46.30
15969;DHT22;8085;53.472;9.794;2023-07-02T11:12:36;20.20;45.80
15969;DHT22;8085;53.472;9.794;2023-07-02T11:15:19;20.30;45.60
15969;DHT22;8085;53.472;9.794;2023-07-02T11:17:51;20.50;44.50
15969;DHT22;8085;53.472;9.794;2023-07-02T11:20:18;20.50;44.30
15969;DHT22;8085;53.472;9.794;2023-07-02T11:22:45;20.60;44.80
15969;DHT22;8085;53.472;9.794;2023-07-02T11:25:17;20.50;43.00
15969;DHT22;8085;53.472;9.794;2023-07-02T11:27:50;20.50;44.00
15969;DHT22;8085;53.472;9.794;2023-07-02T11:30:33;20.40;43.40
15969;DHT22;8085;53.472;9.794;2023-07-02T11:33:04;20.50;42.70
15969;DHT22;8085;53.472;9.794;2023-07-02T11:35:34;20.50;42.10
15969;DHT22;8085;53.472;9.794;2023-07-02T11:38:07;20.60;43.80
15969;DHT22;8085;53.472;9.794;2023-07-02T11:40:41;20.70;43.50
15969;DHT22;8085;53.472;9.794;2023-07-02T11:43:17;20.80;43.30
15969;DHT22;8085;53.472;9.794;2023-07-02T11:45:47;21.00;42.30
15969;DHT22;8085;53.472;9.794;2023-07-02T11:48:17;21.20;40.30
15969;DHT22;8085;53.472;9.794;2023-07-02T11:50:59;21.20;41.40
15969;DHT22;8085;53.472;9.794;2023-07-02T11:53:32;21.10;42.30
15969;DHT22;8085;53.472;9.794;2023-07-02T11:56:05;21.00;42.10
15969;DHT22;8085;53.472;9.794;2023-07-02T11:58:32;21.20;43.90
15969;DHT22;8085;53.472;9.794;2023-07-02T12:01:00;21.20;43.30
15969;DHT22;8085;53.472;9.794;2023-07-02T12:03:37;21.30;40.30
15969;DHT22;8085;53.472;9.794;2023-07-02T12:06:07;21.20;40.50
15969;DHT22;8085;53.472;9.794;2023-07-02T12:08:34;20.90;40.70
15969;DHT22;8085;53.472;9.794;2023-07-02T12:11:07;20.70;41.90
15969;DHT22;8085;53.472;9.794;2023-07-02T12:13:34;20.70;41.90
15969;DHT22;8085;53.472;9.794;2023-07-02T12:16:06;20.70;42.90
15969;DHT22;8085;53.472;9.794;2023-07-02T12:18:39;20.70;42.80
15969;DHT22;8085;53.472;9.794;2023-07-02T12:21:06;20.80;41.50
15969;DHT22;8085;53.472;9.794;2023-07-02T12:23:33;20.90;41.60
15969;DHT22;8085;53.472;9.794;2023-07-02T12:26:09;21.00;41.30
15969;DHT22;8085;53.472;9.794;2023-07-02T12:28:48;21.10;41.50
15969;DHT22;8085;53.472;9.794;2023-07-02T12:31:16;21.50;41.30
15969;DHT22;8085;53.472;9.794;2023-07-02T12:33:46;21.50;40.40
15969;DHT22;8085;53.472;9.794;2023-07-02T12:36:14;21.50;40.30
15969;DHT22;8085;53.472;9.794;2023-07-02T12:38:44;21.50;40.00
15969;DHT22;8085;53.472;9.794;2023-07-02T12:41:21;21.50;39.40
15969;DHT22;8085;53.472;9.794;2023-07-02T12:43:48;21.30;40.50
15969;DHT22;8085;53.472;9.794;2023-07-02T12:46:17;21.10;42.20
15969;DHT22;8085;53.472;9.794;2023-07-02T12:48:44;21.00;43.00
15969;DHT22;8085;53.472;9.794;2023-07-02T12:51:22;21.10;43.50
15969;DHT22;8085;53.472;9.794;2023-07-02T12:53:49;21.30;43.80
15969;DHT22;8085;53.472;9.794;2023-07-02T12:56:26;21.40;43.30
15969;DHT22;8085;53.472;9.794;2023-07-02T12:58:57;21.50;41.90
15969;DHT22;8085;53.472;9.794;2023-07-02T13:01:34;21.50;42.00
15969;DHT22;8085;53.472;9.794;2023-07-02T13:04:10;21.30;42.60
15969;DHT22;8085;53.472;9.794;2023-07-02T13:06:47;21.00;42.90
15969;DHT22;8085;53.472;9.794;2023-07-02T13:09:19;20.70;43.30
15969;DHT22;8085;53.472;9.794;2023-07-02T13:11:46;20.50;44.30
15969;DHT22;8085;53.472;9.794;2023-07-02T13:14:16;20.40;45.00
15969;DHT22;8085;53.472;9.794;2023-07-02T13:16:47;20.40;45.20
15969;DHT22;8085;53.472;9.794;2023-07-02T13:19:15;20.40;45.70
15969;DHT22;8085;53.472;9.794;2023-07-02T13:21:45;20.40;45.00
15969;DHT22;8085;53.472;9.794;2023-07-02T13:24:13;20.40;46.00
15969;DHT22;8085;53.472;9.794;2023-07-02T13:26:45;20.40;45.50
15969;DHT22;8085;53.472;9.794;2023-07-02T13:29:13;20.60;46.30
15969;DHT22;8085;53.472;9.794;2023-07-02T13:31:43;20.90;43.10
15969;DHT22;8085;53.472;9.794;2023-07-02T13:34:17;21.00;41.60
15969;DHT22;8085;53.472;9.794;2023-07-02T13:36:48;21.00;42.70
15969;DHT22;8085;53.472;9.794;2023-07-02T13:39:15;20.90;42.90
15969;DHT22;8085;53.472;9.794;2023-07-02T13:41:50;20.80;42.50
15969;DHT22;8085;53.472;9.794;2023-07-02T13:44:20;20.60;44.40
15969;DHT22;8085;53.472;9.794;2023-07-02T13:46:50;20.30;44.40
15969;DHT22;8085;53.472;9.794;2023-07-02T13:49:21;20.30;44.70
15969;DHT22;8085;53.472;9.794;2023-07-02T13:51:51;20.20;45.00
15969;DHT22;8085;53.472;9.794;2023-07-02T13:54:22;20.10;45.40
15969;DHT22;8085;53.472;9.794;2023-07-02T13:56:49;20.20;46.00
15969;DHT22;8085;53.472;9.794;2023-07-02T13:59:24;20.20;45.90
15969;DHT22;8085;53.472;9.794;2023-07-02T14:01:54;20.30;45.70
15969;DHT22;8085;53.472;9.794;2023-07-02T14:04:22;20.60;45.00
15969;DHT22;8085;53.472;9.794;2023-07-02T14:07:13;20.70;43.90
15969;DHT22;8085;53.472;9.794;2023-07-02T14:09:43;20.80;44.70
15969;DHT22;8085;53.472;9.794;2023-07-02T14:12:10;20.80;43.80
15969;DHT22;8085;53.472;9.794;2023-07-02T14:14:48;20.70;43.50
15969;DHT22;8085;53.472;9.794;2023-07-02T14:17:16;20.70;43.90
15969;DHT22;8085;53.472;9.794;2023-07-02T14:19:44;20.70;43.40
15969;DHT22;8085;53.472;9.794;2023-07-02T14:22:11;20.60;43.40
15969;DHT22;8085;53.472;9.794;2023-07-02T14:24:39;20.60;43.40
15969;DHT22;8085;53.472;9.794;2023-07-02T14:27:06;20.50;43.10
15969;DHT22;8085;53.472;9.794;2023-07-02T14:29:34;20.50;43.00
15969;DHT22;8085;53.472;9.794;2023-07-02T14:32:04;20.50;41.70
15969;DHT22;8085;53.472;9.794;2023-07-02T14:34:42;20.40;41.80
15969;DHT22;8085;53.472;9.794;2023-07-02T14:37:24;20.50;41.30
15969;DHT22;8085;53.472;9.794;2023-07-02T14:39:52;20.60;42.30
15969;DHT22;8085;53.472;9.794;2023-07-02T14:42:19;20.50;41.50
15969;DHT22;8085;53.472;9.794;2023-07-02T14:44:47;20.50;42.30
15969;DHT22;8085;53.472;9.794;2023-07-02T14:47:18;20.40;41.50
15969;DHT22;8085;53.472;9.794;2023-07-02T14:49:45;20.30;41.70
15969;DHT22;8085;53.472;9.794;2023-07-02T14:52:13;20.20;42.60
15969;DHT22;8085;53.472;9.794;2023-07-02T14:54:40;20.10;43.50
15969;DHT22;8085;53.472;9.794;2023-07-02T14:57:07;20.10;43.80
15969;DHT22;8085;53.472;9.794;2023-07-02T14:59:35;20.10;43.40
15969;DHT22;8085;53.472;9.794;2023-07-02T15:02:06;20.00;44.30
15969;DHT22;8085;53.472;9.794;2023-07-02T15:04:35;20.10;43.80
15969;DHT22;8085;53.472;9.794;2023-07-02T15:07:02;20.10;42.40
15969;DHT22;8085;53.472;9.794;2023-07-02T15:09:30;20.20;43.10
15969;DHT22;8085;53.472;9.794;2023-07-02T15:12:07;20.30;42.90
15969;DHT22;8085;53.472;9.794;2023-07-02T15:14:34;20.20;43.20
15969;DHT22;8085;53.472;9.794;2023-07-02T15:17:01;20.20;43.70
15969;DHT22;8085;53.472;9.794;2023-07-02T15:19:29;20.20;44.10
15969;DHT22;8085;53.472;9.794;2023-07-02T15:21:58;20.30;43.30
15969;DHT22;8085;53.472;9.794;2023-07-02T15:24:28;20.50;43.40
15969;DHT22;8085;53.472;9.794;2023-07-02T15:26:55;20.70;41.00
15969;DHT22;8085;53.472;9.794;2023-07-02T15:29:27;20.70;40.00
15969;DHT22;8085;53.472;9.794;2023-07-02T15:31:55;20.70;41.10
15969;DHT22;8085;53.472;9.794;2023-07-02T15:34:22;20.60;40.90
15969;DHT22;8085;53.472;9.794;2023-07-02T15:36:55;20.40;41.00
15969;DHT22;8085;53.472;9.794;2023-07-02T15:39:23;20.30;42.30
15969;DHT22;8085;53.472;9.794;2023-07-02T15:41:52;20.30;42.00
15969;DHT22;8085;53.472;9.794;2023-07-02T15:44:28;20.20;43.40
15969;DHT22;8085;53.472;9.794;2023-07-02T15:46:57;20.30;43.00
15969;DHT22;8085;53.472;9.794;2023-07-02T15:49:29;20.50;42.40
15969;DHT22;8085;53.472;9.794;2023-07-02T15:52:03;20.50;42.50
15969;DHT22;8085;53.472;9.794;2023-07-02T15:55:00;20.40;42.60
15969;DHT22;8085;53.472;9.794;2023-07-02T15:57:31;20.30;43.00
15969;DHT22;8085;53.472;9.794;2023-07-02T15:59:59;20.10;42.50